createdAt,value
2022-09-09T00:01:31.715Z,99846.19
2022-09-09T00:04:05.311Z,99871.72
2022-09-09T00:06:36.737Z,99869.56
2022-09-09T00:09:12.675Z,99865.44
2022-09-09T00:11:48.822Z,99861.78
2022-09-09T00:14:24.976Z,99878.34
2022-09-09T00:16:58.240Z,99864.53
2022-09-09T00:19:33.119Z,99871.28
2022-09-09T00:22:15.434Z,99868.38
2022-09-09T00:24:47.241Z,99850.22
2022-09-09T00:27:26.684Z,99872.94
2022-09-09T00:30:00.192Z,99871.13
2022-09-09T00:32:32.416Z,99878.75
2022-09-09T00:35:05.231Z,99887.00
2022-09-09T00:37:36.104Z,99892.44
2022-09-09T00:40:10.999Z,99891.16
2022-09-09T00:42:44.002Z,99883.50
2022-09-09T00:45:38.003Z,99884.56
2022-09-09T00:48:12.771Z,99881.84
2022-09-09T00:50:49.856Z,99857.63
2022-09-09T00:53:32.189Z,99888.31
2022-09-09T00:56:11.745Z,99885.66
2022-09-09T00:58:42.116Z,99889.47
2022-09-09T01:01:14.278Z,99867.28
2022-09-09T01:03:50.042Z,99886.81
2022-09-09T01:06:23.642Z,99888.84
2022-09-09T01:09:08.552Z,99892.16
2022-09-09T01:11:46.336Z,99892.16
2022-09-09T01:14:27.207Z,99891.13
2022-09-09T01:16:58.761Z,99849.25
2022-09-09T01:19:40.336Z,99885.22
2022-09-09T01:22:16.594Z,99887.81
2022-09-09T01:25:08.906Z,99885.03
2022-09-09T01:27:40.154Z,99885.13
2022-09-09T01:30:12.317Z,99888.00
2022-09-09T01:32:43.894Z,99865.00
2022-09-09T01:35:26.555Z,99881.88
2022-09-09T01:37:54.699Z,99883.25
2022-09-09T01:40:23.324Z,99879.59
2022-09-09T01:42:53.639Z,99876.78
2022-09-09T01:45:21.985Z,99870.81
2022-09-09T01:47:50.633Z,99869.91
2022-09-09T01:50:19.516Z,99869.22
2022-09-09T01:52:51.811Z,99867.59
2022-09-09T01:55:25.240Z,99866.91
2022-09-09T01:58:04.287Z,99868.06
2022-09-09T02:00:34.300Z,99871.69
2022-09-09T02:03:11.190Z,99875.00
2022-09-09T02:05:41.712Z,99875.53
2022-09-09T02:08:13.356Z,99876.66
2022-09-09T02:10:48.493Z,99864.75
2022-09-09T02:13:22.325Z,99871.69
2022-09-09T02:15:57.444Z,99872.53
2022-09-09T02:18:31.543Z,99870.75
2022-09-09T02:21:01.667Z,99857.34
2022-09-09T02:23:31.215Z,99853.84
2022-09-09T02:26:01.116Z,99844.56
2022-09-09T02:28:34.231Z,99872.47
2022-09-09T02:31:03.578Z,99865.94
2022-09-09T02:33:37.777Z,99844.59
2022-09-09T02:36:07.903Z,99864.47
2022-09-09T02:38:40.812Z,99867.25
2022-09-09T02:41:08.936Z,99847.81
2022-09-09T02:43:39.391Z,99801.53
2022-09-09T02:46:18.433Z,99849.47
2022-09-09T02:48:57.495Z,99881.56
2022-09-09T02:51:34.546Z,99879.56
2022-09-09T02:54:13.475Z,99870.13
2022-09-09T02:56:45.312Z,99879.91
2022-09-09T02:59:15.277Z,99890.41
2022-09-09T03:01:43.359Z,99884.84
2022-09-09T03:04:11.913Z,99885.44
2022-09-09T03:06:40.068Z,99888.69
2022-09-09T03:09:09.113Z,99866.22
2022-09-09T03:11:37.288Z,99885.00
2022-09-09T03:14:05.394Z,99868.81
2022-09-09T03:16:35.582Z,99882.69
2022-09-09T03:19:03.840Z,99883.56
2022-09-09T03:21:31.860Z,99885.81
2022-09-09T03:23:59.781Z,99892.50
2022-09-09T03:26:27.816Z,99884.22
2022-09-09T03:28:55.926Z,99902.50
2022-09-09T03:31:24.177Z,99901.22
2022-09-09T03:33:54.008Z,99898.16
2022-09-09T03:36:21.934Z,99906.13
2022-09-09T03:38:50.400Z,99909.34
2022-09-09T03:41:19.406Z,99915.72
2022-09-09T03:43:47.664Z,99911.97
2022-09-09T03:46:16.125Z,99897.75
2022-09-09T03:48:45.001Z,99908.94
2022-09-09T03:51:16.180Z,99912.09
2022-09-09T03:53:44.886Z,99905.41
2022-09-09T03:56:13.219Z,99908.78
2022-09-09T03:58:42.091Z,99904.03
2022-09-09T04:01:15.406Z,99909.63
2022-09-09T04:03:44.006Z,99885.78
2022-09-09T04:06:16.273Z,99903.22
2022-09-09T04:08:44.680Z,99892.34
2022-09-09T04:11:12.773Z,99906.19
2022-09-09T04:13:41.314Z,99911.09
2022-09-09T04:16:11.654Z,99902.00
2022-09-09T04:18:40.113Z,99906.19
2022-09-09T04:21:09.174Z,99905.13
2022-09-09T04:23:38.654Z,99901.19
2022-09-09T04:26:08.418Z,99892.81
2022-09-09T04:28:38.225Z,99891.59
2022-09-09T04:31:08.790Z,99885.66
2022-09-09T04:33:40.304Z,99897.75
2022-09-09T04:36:09.724Z,99902.16
2022-09-09T04:38:39.571Z,99911.34
2022-09-09T04:41:08.473Z,99906.28
2022-09-09T04:43:36.843Z,99905.09
2022-09-09T04:46:05.495Z,99910.38
2022-09-09T04:48:33.634Z,99922.84
2022-09-09T04:51:03.627Z,99925.03
2022-09-09T04:53:32.004Z,99921.91
2022-09-09T04:56:09.452Z,99933.16
2022-09-09T04:58:38.163Z,99928.19
2022-09-09T05:01:08.298Z,99938.03
2022-09-09T05:03:37.261Z,99934.31
2022-09-09T05:06:10.678Z,99934.06
2022-09-09T05:08:39.635Z,99932.22
2022-09-09T05:11:18.296Z,99931.28
2022-09-09T05:13:47.076Z,99937.22
2022-09-09T05:16:16.054Z,99929.78
2022-09-09T05:18:44.903Z,99858.72
2022-09-09T05:21:14.214Z,99924.81
2022-09-09T05:23:43.020Z,99919.50
2022-09-09T05:26:17.603Z,99913.22
2022-09-09T05:28:48.070Z,99897.94
2022-09-09T05:31:18.115Z,99927.31
2022-09-09T05:33:49.684Z,99913.25
2022-09-09T05:36:19.253Z,99921.53
2022-09-09T05:38:48.349Z,99909.09
2022-09-09T05:41:18.511Z,99893.41
2022-09-09T05:43:49.856Z,99923.66
2022-09-09T05:46:19.863Z,99927.63
2022-09-09T05:48:49.615Z,99901.63
2022-09-09T05:51:22.903Z,99919.16
2022-09-09T05:53:52.084Z,99925.31
2022-09-09T05:56:23.692Z,99924.13
2022-09-09T05:58:55.284Z,99899.50
2022-09-09T06:01:25.777Z,99926.50
2022-09-09T06:03:54.482Z,99923.31
2022-09-09T06:06:24.470Z,99900.16
2022-09-09T06:08:55.067Z,99907.34
2022-09-09T06:11:25.165Z,99903.41
2022-09-09T06:13:56.015Z,99902.06
2022-09-09T06:16:26.103Z,99885.53
2022-09-09T06:18:55.736Z,99911.84
2022-09-09T06:21:26.005Z,99903.34
2022-09-09T06:23:58.957Z,99914.34
2022-09-09T06:26:29.690Z,99895.47
2022-09-09T06:28:59.888Z,99896.09
2022-09-09T06:31:31.817Z,99898.44
2022-09-09T06:34:00.966Z,99899.41
2022-09-09T06:36:32.163Z,99848.47
2022-09-09T06:39:01.048Z,99921.25
2022-09-09T06:41:31.423Z,99909.34
2022-09-09T06:44:02.972Z,99913.88
2022-09-09T06:46:34.177Z,99921.44
2022-09-09T06:49:03.794Z,99910.19
2022-09-09T06:51:33.314Z,99928.75
2022-09-09T06:54:04.132Z,99900.69
2022-09-09T06:56:34.071Z,99923.28
2022-09-09T06:59:06.240Z,99897.47
2022-09-09T07:01:37.102Z,99917.16
2022-09-09T07:04:11.029Z,99923.22
2022-09-09T07:06:41.767Z,99925.44
2022-09-09T07:09:12.244Z,99919.84
2022-09-09T07:11:43.232Z,99919.25
2022-09-09T07:14:15.146Z,99915.63
2022-09-09T07:16:44.521Z,99913.66
2022-09-09T07:19:13.795Z,99915.75
2022-09-09T07:21:43.072Z,99912.53
2022-09-09T07:24:13.732Z,99919.41
2022-09-09T07:26:42.531Z,99912.63
2022-09-09T07:29:20.598Z,99914.81
2022-09-09T07:31:49.525Z,99882.63
2022-09-09T07:34:17.752Z,99903.56
2022-09-09T07:36:47.442Z,99912.53
2022-09-09T07:39:18.765Z,99908.22
2022-09-09T07:41:49.024Z,99823.41
2022-09-09T07:44:22.533Z,99916.13
2022-09-09T07:46:51.591Z,99913.41
2022-09-09T07:49:27.461Z,99909.13
2022-09-09T07:51:58.678Z,99907.53
2022-09-09T07:54:27.610Z,99911.16
2022-09-09T07:56:56.662Z,99907.22
2022-09-09T07:59:26.745Z,99902.53
2022-09-09T08:01:55.951Z,99897.38
2022-09-09T08:04:27.441Z,99902.22
2022-09-09T08:06:58.130Z,99892.41
2022-09-09T08:09:29.743Z,99893.53
2022-09-09T08:11:59.594Z,99852.97
2022-09-09T08:14:29.668Z,99886.50
2022-09-09T08:16:58.705Z,99862.41
2022-09-09T08:19:30.309Z,99886.41
2022-09-09T08:21:58.461Z,99868.78
2022-09-09T08:24:27.851Z,99878.91
2022-09-09T08:26:57.968Z,99874.78
2022-09-09T08:29:26.862Z,99883.28
2022-09-09T08:31:59.302Z,99871.81
2022-09-09T08:34:29.300Z,99872.56
2022-09-09T08:36:57.824Z,99871.47
2022-09-09T08:39:26.042Z,99871.47
2022-09-09T08:42:26.481Z,99868.66
2022-09-09T08:45:15.066Z,99865.41
2022-09-09T08:47:53.731Z,99873.47
2022-09-09T08:50:27.784Z,99872.09
2022-09-09T08:53:03.421Z,99870.41
2022-09-09T08:55:42.532Z,99856.06
2022-09-09T08:58:16.505Z,99862.25
2022-09-09T09:01:01.282Z,99864.22
2022-09-09T09:03:42.534Z,99822.97
2022-09-09T09:06:25.458Z,99853.59
2022-09-09T09:09:02.311Z,99857.56
2022-09-09T09:11:38.078Z,99847.91
2022-09-09T09:14:12.089Z,99851.19
2022-09-09T09:16:44.360Z,99841.91
2022-09-09T09:19:17.358Z,99819.91
2022-09-09T09:21:47.412Z,99839.56
2022-09-09T09:24:21.954Z,99802.19
2022-09-09T09:26:50.766Z,99823.72
2022-09-09T09:29:22.577Z,99824.31
2022-09-09T09:31:55.683Z,99818.00
2022-09-09T09:34:26.271Z,99819.91
2022-09-09T09:36:57.016Z,99819.63
2022-09-09T09:42:20.385Z,99804.94
2022-09-09T09:44:52.020Z,99809.66
2022-09-09T09:47:21.622Z,99808.25
2022-09-09T09:49:56.555Z,99811.50
2022-09-09T09:52:27.385Z,99797.72
2022-09-09T09:54:56.852Z,99795.13
2022-09-09T09:57:28.921Z,99794.63
2022-09-09T10:00:06.616Z,99795.97
2022-09-09T10:02:41.742Z,99793.72
2022-09-09T10:05:17.898Z,99787.59
2022-09-09T10:07:47.424Z,99788.69
2022-09-09T10:10:22.160Z,99748.34
2022-09-09T10:13:02.360Z,99764.34
2022-09-09T10:15:43.586Z,99769.22
2022-09-09T10:18:32.865Z,99757.16
2022-09-09T10:21:11.770Z,99757.97
2022-09-09T10:23:57.170Z,99753.22
2022-09-09T10:26:37.914Z,99762.88
2022-09-09T10:29:29.955Z,99765.72
2022-09-09T10:32:12.353Z,99765.25
2022-09-09T10:34:58.867Z,99769.44
2022-09-09T10:37:45.863Z,99754.97
2022-09-09T10:40:30.998Z,99761.00
2022-09-09T10:43:11.973Z,99752.38
2022-09-09T10:45:50.793Z,99758.41
2022-09-09T10:48:32.917Z,99761.41
2022-09-09T10:51:16.808Z,99752.25
2022-09-09T10:53:56.804Z,99749.50
2022-09-09T10:56:26.541Z,99742.69
2022-09-09T10:59:00.543Z,99744.69
2022-09-09T11:01:33.706Z,99737.50
2022-09-09T11:04:06.966Z,99748.06
2022-09-09T11:06:42.392Z,99709.44
2022-09-09T11:09:18.914Z,99725.63
2022-09-09T11:11:54.908Z,99730.13
2022-09-09T11:14:35.319Z,99725.19
2022-09-09T11:17:11.369Z,99716.34
2022-09-09T11:19:42.362Z,99712.50
2022-09-09T11:22:20.361Z,99703.47
2022-09-09T11:24:54.230Z,99718.34
2022-09-09T11:27:28.917Z,99705.97
2022-09-09T11:30:32.321Z,99701.28
2022-09-09T11:33:55.590Z,99688.34
2022-09-09T11:36:49.637Z,99695.50
2022-09-09T11:39:52.422Z,99694.31
2022-09-09T11:42:24.740Z,99700.66
2022-09-09T11:44:53.582Z,99693.38
2022-09-09T11:47:27.589Z,99682.41
2022-09-09T11:49:56.719Z,99703.34
2022-09-09T11:52:27.840Z,99654.16
2022-09-09T11:54:57.845Z,99695.66
2022-09-09T11:57:37.179Z,99681.44
2022-09-09T12:00:07.291Z,99680.78
2022-09-09T12:02:37.680Z,99661.25
2022-09-09T12:05:09.673Z,99675.59
2022-09-09T12:07:43.770Z,99662.88
2022-09-09T12:10:27.220Z,99628.81
2022-09-09T12:12:57.000Z,99655.41
2022-09-09T12:15:30.350Z,99653.31
2022-09-09T12:18:03.880Z,99651.47
2022-09-09T12:20:37.925Z,99657.28
2022-09-09T12:23:22.654Z,99653.91
2022-09-09T12:26:10.015Z,99652.28
2022-09-09T12:29:04.408Z,99643.16
2022-09-09T12:31:45.143Z,99644.44
2022-09-09T12:34:19.274Z,99627.97
2022-09-09T12:36:59.616Z,99635.00
2022-09-09T12:39:33.358Z,99613.03
2022-09-09T12:42:01.933Z,99632.41
2022-09-09T12:44:33.433Z,99634.03
2022-09-09T12:47:04.625Z,99630.88
2022-09-09T12:49:35.865Z,99622.72
2022-09-09T12:52:07.351Z,99618.16
2022-09-09T12:54:38.611Z,99603.66
2022-09-09T12:57:07.528Z,99622.72
2022-09-09T12:59:41.721Z,99619.78
2022-09-09T13:02:20.948Z,99593.28
2022-09-09T13:04:51.700Z,99607.38
2022-09-09T13:07:20.693Z,99597.31
2022-09-09T13:09:50.287Z,99603.13
2022-09-09T13:12:21.304Z,99608.59
2022-09-09T13:14:54.636Z,99609.19
2022-09-09T13:17:26.291Z,99595.09
2022-09-09T13:19:56.775Z,99585.28
2022-09-09T13:22:38.160Z,99583.47
2022-09-09T13:25:20.163Z,99587.31
2022-09-09T13:27:56.894Z,99591.31
2022-09-09T13:30:30.405Z,99599.16
2022-09-09T13:33:08.408Z,99580.97
2022-09-09T13:35:38.001Z,99563.88
2022-09-09T13:38:11.266Z,99580.50
2022-09-09T13:40:40.818Z,99577.63
2022-09-09T13:43:21.989Z,99533.25
2022-09-09T13:45:59.137Z,99568.38
2022-09-09T13:48:28.160Z,99561.06
2022-09-09T13:50:58.330Z,99564.91
2022-09-09T13:53:26.892Z,99564.06
2022-09-09T13:55:55.343Z,99560.09
2022-09-09T13:58:24.337Z,99534.31
2022-09-09T14:00:52.477Z,99539.59
2022-09-09T14:03:22.887Z,99559.81
2022-09-09T14:05:51.230Z,99557.72
2022-09-09T14:08:38.063Z,99556.28
2022-09-09T14:11:06.774Z,99552.59
2022-09-09T14:13:35.473Z,99543.88
2022-09-09T14:16:04.301Z,99532.78
2022-09-09T14:18:35.329Z,99545.50
2022-09-09T14:21:03.940Z,99557.06
2022-09-09T14:23:33.383Z,99552.09
2022-09-09T14:26:02.045Z,99539.97
2022-09-09T14:28:54.727Z,99558.34
2022-09-09T14:31:19.523Z,99545.97
2022-09-09T14:33:49.733Z,99544.34
2022-09-09T14:36:17.862Z,99515.63
2022-09-09T14:38:45.923Z,99528.00
2022-09-09T14:41:17.925Z,99388.31
2022-09-09T14:43:47.126Z,99541.56
2022-09-09T14:46:17.595Z,99533.88
2022-09-09T14:48:46.383Z,99547.69
2022-09-09T14:51:18.533Z,99535.78
2022-09-09T14:53:46.929Z,99531.44
2022-09-09T14:56:17.276Z,99525.56
2022-09-09T14:58:45.975Z,99532.22
2022-09-09T15:01:16.153Z,99533.69
2022-09-09T15:03:50.296Z,99507.78
2022-09-09T15:06:20.520Z,99496.00
2022-09-09T15:08:49.677Z,99529.53
2022-09-09T15:11:18.464Z,99523.19
2022-09-09T15:13:47.364Z,99526.97
2022-09-09T15:16:17.188Z,99530.06
2022-09-09T15:18:46.153Z,99533.50
2022-09-09T15:21:16.622Z,99515.50
2022-09-09T15:23:46.184Z,99533.63
2022-09-09T15:26:15.257Z,99532.56
2022-09-09T15:28:45.640Z,99526.59
2022-09-09T15:31:19.366Z,99524.97
2022-09-09T15:33:50.357Z,99530.13
2022-09-09T15:36:20.264Z,99523.00
2022-09-09T15:38:49.881Z,99523.97
2022-09-09T15:41:19.216Z,99521.16
2022-09-09T15:43:48.709Z,99525.94
2022-09-09T15:46:33.462Z,99515.78
2022-09-09T15:49:07.594Z,99484.09
2022-09-09T15:51:42.703Z,99512.31
2022-09-09T15:54:14.257Z,99502.25
2022-09-09T15:56:42.994Z,99513.72
2022-09-09T15:59:12.389Z,99513.94
2022-09-09T16:01:41.999Z,99517.22
2022-09-09T16:04:10.795Z,99512.78
2022-09-09T16:06:40.944Z,99507.53
2022-09-09T16:09:11.130Z,99489.31
2022-09-09T16:11:41.711Z,99516.50
2022-09-09T16:14:11.561Z,99518.41
2022-09-09T16:16:39.642Z,99521.09
2022-09-09T16:19:10.675Z,99517.00
2022-09-09T16:21:41.858Z,99531.47
2022-09-09T16:24:12.468Z,99518.63
2022-09-09T16:26:44.156Z,99523.84
2022-09-09T16:29:12.473Z,99524.31
2022-09-09T16:31:41.609Z,99507.53
2022-09-09T16:34:09.946Z,99510.91
2022-09-09T16:36:39.939Z,99514.41
2022-09-09T16:39:10.296Z,99522.31
2022-09-09T16:41:39.507Z,99515.56
2022-09-09T16:44:11.492Z,99518.81
2022-09-09T16:46:42.084Z,99511.00
2022-09-09T16:49:11.867Z,99515.78
2022-09-09T16:51:41.868Z,99521.84
2022-09-09T16:54:11.419Z,99515.53
2022-09-09T16:56:42.278Z,99517.75
2022-09-09T16:59:14.310Z,99520.91
2022-09-09T17:01:44.855Z,99522.41
2022-09-09T17:04:16.577Z,99504.88
2022-09-09T17:06:48.473Z,99505.25
2022-09-09T17:09:16.589Z,99504.31
2022-09-09T17:11:45.068Z,99519.94
2022-09-09T17:14:18.263Z,99515.75
2022-09-09T17:16:46.668Z,99517.41
2022-09-09T17:19:15.006Z,99526.69
2022-09-09T17:22:05.878Z,99531.84
2022-09-09T17:24:31.753Z,99532.91
2022-09-09T17:27:00.200Z,99532.06
2022-09-09T17:29:29.841Z,99543.91
2022-09-09T17:31:59.410Z,99538.44
2022-09-09T17:34:27.823Z,99533.59
2022-09-09T17:36:55.776Z,99546.72
2022-09-09T17:39:24.099Z,99543.44
2022-09-09T17:41:53.901Z,99546.41
2022-09-09T17:44:21.861Z,99543.72
2022-09-09T17:46:51.608Z,99548.59
2022-09-09T17:49:20.074Z,99554.38
2022-09-09T17:51:48.581Z,99561.25
2022-09-09T17:54:19.355Z,99555.28
2022-09-09T17:56:48.364Z,99561.09
2022-09-09T17:59:18.024Z,99555.03
2022-09-09T18:01:49.637Z,99568.19
2022-09-09T18:04:20.555Z,99573.78
2022-09-09T18:06:50.457Z,99573.03
2022-09-09T18:09:21.523Z,99576.31
2022-09-09T18:11:51.553Z,99569.06
2022-09-09T18:14:22.776Z,99576.16
2022-09-09T18:16:51.487Z,99568.44
2022-09-09T18:19:23.596Z,99584.28
2022-09-09T18:21:51.890Z,99582.84
2022-09-09T18:24:22.209Z,99585.75
2022-09-09T18:26:51.495Z,99580.63
2022-09-09T18:29:24.821Z,99570.06
2022-09-09T18:31:53.922Z,99583.00
2022-09-09T18:34:25.708Z,99580.78
2022-09-09T18:36:56.248Z,99581.81
2022-09-09T18:39:27.187Z,99586.41
2022-09-09T18:41:59.473Z,99582.97
2022-09-09T18:44:30.237Z,99578.28
2022-09-09T18:46:58.685Z,99588.69
2022-09-09T18:49:29.046Z,99596.94
2022-09-09T18:51:58.025Z,99595.75
2022-09-09T18:54:29.782Z,99591.69
2022-09-09T18:56:58.023Z,99599.28
2022-09-09T18:59:26.202Z,99601.94
2022-09-09T19:01:55.284Z,99602.91
2022-09-09T19:04:25.356Z,99594.06
2022-09-09T19:06:58.326Z,99598.22
2022-09-09T19:09:29.773Z,99603.63
2022-09-09T19:11:58.351Z,99601.94
2022-09-09T19:14:26.816Z,99598.66
2022-09-09T19:16:56.127Z,99573.63
2022-09-09T19:19:27.121Z,99587.38
2022-09-09T19:21:57.840Z,99579.34
2022-09-09T19:24:28.697Z,99571.19
2022-09-09T19:27:01.689Z,99576.91
2022-09-09T19:29:32.504Z,99579.44
2022-09-09T19:32:36.788Z,99563.91
2022-09-09T19:34:50.538Z,99572.56
2022-09-09T19:37:20.477Z,99579.50
2022-09-09T19:39:49.594Z,99579.94
2022-09-09T19:42:17.850Z,99574.59
2022-09-09T19:44:46.590Z,99577.56
2022-09-09T19:47:15.323Z,99576.75
2022-09-09T19:49:47.277Z,99565.91
2022-09-09T19:52:16.995Z,99560.53
2022-09-09T19:54:47.029Z,99559.94
2022-09-09T19:57:16.395Z,99561.69
2022-09-09T19:59:44.884Z,99564.22
2022-09-09T20:02:15.698Z,99572.75
2022-09-09T20:04:44.954Z,99563.66
2022-09-09T20:07:13.508Z,99563.25
2022-09-09T20:09:41.606Z,99573.94
2022-09-09T20:12:11.187Z,99559.59
2022-09-09T20:14:40.222Z,99568.56
2022-09-09T20:17:10.311Z,99568.16
2022-09-09T20:19:40.038Z,99557.22
2022-09-09T20:22:08.401Z,99571.41
2022-09-09T20:24:37.151Z,99561.16
2022-09-09T20:27:07.669Z,99563.25
2022-09-09T20:29:38.214Z,99566.94
2022-09-09T20:32:07.649Z,99565.31
2022-09-09T20:34:35.863Z,99544.59
2022-09-09T20:37:04.942Z,99554.19
2022-09-09T20:39:33.141Z,99560.16
2022-09-09T20:42:03.150Z,99553.16
2022-09-09T20:44:31.547Z,99510.34
2022-09-09T20:47:06.759Z,99555.41
2022-09-09T20:49:36.489Z,99565.91
2022-09-09T20:52:04.944Z,99566.09
2022-09-09T20:54:33.706Z,99562.41
2022-09-09T20:57:02.096Z,99566.94
2022-09-09T20:59:31.371Z,99560.38
2022-09-09T21:02:01.628Z,99564.69
2022-09-09T21:04:30.271Z,99486.56
2022-09-09T21:06:58.421Z,99574.56
2022-09-09T21:09:26.738Z,99567.19
2022-09-09T21:11:54.691Z,99572.72
2022-09-09T21:14:22.796Z,99569.44
2022-09-09T21:16:51.246Z,99555.47
2022-09-09T21:19:22.442Z,99548.91
2022-09-09T21:21:50.748Z,99555.69
2022-09-09T21:24:19.432Z,99516.31
2022-09-09T21:26:49.784Z,99561.66
2022-09-09T21:29:20.231Z,99562.47
2022-09-09T21:31:48.486Z,99567.41
2022-09-09T21:34:18.581Z,99573.94
2022-09-09T21:36:48.093Z,99536.63
2022-09-09T21:39:16.386Z,99556.72
2022-09-09T21:41:44.678Z,99561.84
2022-09-09T21:44:14.485Z,99546.25
2022-09-09T21:46:43.932Z,99551.19
2022-09-09T21:49:12.651Z,99548.94
2022-09-09T21:51:40.927Z,99541.56
2022-09-09T21:54:10.371Z,99540.31
2022-09-09T21:56:38.541Z,99516.13
2022-09-09T21:59:06.555Z,99549.13
2022-09-09T22:01:34.917Z,99550.75
2022-09-09T22:04:03.656Z,99548.06
2022-09-09T22:06:31.602Z,99556.31
2022-09-09T22:09:01.781Z,99562.88
2022-09-09T22:11:31.733Z,99560.00
2022-09-09T22:14:00.233Z,99531.50
2022-09-09T22:16:29.012Z,99551.97
2022-09-09T22:18:59.263Z,99551.56
2022-09-09T22:21:29.547Z,99555.06
2022-09-09T22:23:59.987Z,99535.72
2022-09-09T22:26:31.748Z,99555.84
2022-09-09T22:29:00.717Z,99549.72
2022-09-09T22:31:30.266Z,99555.13
2022-09-09T22:33:58.458Z,99551.06
2022-09-09T22:36:27.298Z,99554.94
2022-09-09T22:38:56.078Z,99550.47
2022-09-09T22:41:25.083Z,99549.44
2022-09-09T22:43:54.735Z,99545.75
2022-09-09T22:46:23.811Z,99552.88
2022-09-09T22:48:51.954Z,99527.06
2022-09-09T22:51:20.125Z,99557.78
2022-09-09T22:53:48.122Z,99557.78
2022-09-09T22:56:18.321Z,99548.75
2022-09-09T22:58:47.780Z,99553.47
2022-09-09T23:01:19.556Z,99552.88
2022-09-09T23:03:49.585Z,99515.28
2022-09-09T23:06:23.029Z,99553.22
2022-09-09T23:08:55.932Z,99552.81
2022-09-09T23:11:27.437Z,99553.16
2022-09-09T23:13:57.099Z,99559.03
2022-09-09T23:16:28.492Z,99547.75
2022-09-09T23:18:57.044Z,99509.75
2022-09-09T23:21:28.322Z,99550.66
2022-09-09T23:23:58.248Z,99546.59
2022-09-09T23:26:30.143Z,99549.47
2022-09-09T23:28:59.919Z,99534.75
2022-09-09T23:31:33.380Z,99529.00
2022-09-09T23:34:02.760Z,99465.25
2022-09-09T23:36:31.879Z,99522.38
2022-09-09T23:39:01.346Z,99524.34
2022-09-09T23:41:29.493Z,99516.31
2022-09-09T23:43:57.765Z,99535.09
2022-09-09T23:46:28.760Z,99532.81
2022-09-09T23:48:59.441Z,99534.13
2022-09-09T23:51:30.762Z,99527.09
2022-09-09T23:54:01.980Z,99529.78
2022-09-09T23:56:32.867Z,99522.34
2022-09-09T23:59:01.708Z,99519.97
